Time;durP1;ratioP1;P1;durP2;ratioP2;P2;SDS_P1;SDS_P2;PMS_P1;PMS_P2;Temp;Humidity;BMP_temperature;BMP_pressure;BME280_temperature;BME280_humidity;BME280_pressure;Samples;Min_cycle;Max_cycle;Signal;HPM_P1;HPM_P2
2023/09/10 00:00:34;;;;;;;17.10;13.23;;;;;;;17.40;100.00;94189.41;5091094;28;20101;-58
2023/09/10 00:03:01;;;;;;;16.98;12.70;;;;;;;17.35;100.00;94188.00;5090514;28;20048;-59
2023/09/10 00:05:31;;;;;;;18.83;14.13;;;;;;;17.34;100.00;94194.78;5090479;28;20052;-58
2023/09/10 00:08:00;;;;;;;21.17;14.73;;;;;;;17.29;100.00;94187.06;5091792;28;20522;-59
2023/09/10 00:10:27;;;;;;;19.83;13.77;;;;;;;17.27;100.00;94190.28;5090662;28;20044;-59
2023/09/10 00:12:54;;;;;;;16.15;11.55;;;;;;;17.24;100.00;94190.41;5091485;28;20036;-59
2023/09/10 00:15:21;;;;;;;18.50;12.35;;;;;;;17.21;100.00;94191.31;5091153;28;20037;-59
2023/09/10 00:17:48;;;;;;;16.02;12.27;;;;;;;17.08;100.00;94192.16;5090664;28;20044;-59
2023/09/10 00:20:14;;;;;;;17.17;12.95;;;;;;;17.02;100.00;94195.94;5091226;28;20450;-59
2023/09/10 00:22:42;;;;;;;19.27;13.20;;;;;;;17.02;100.00;94193.94;5090723;28;20051;-59
2023/09/10 00:25:09;;;;;;;18.13;12.90;;;;;;;16.99;100.00;94186.53;5091059;28;20109;-59
2023/09/10 00:27:36;;;;;;;58.05;39.00;;;;;;;17.01;100.00;94189.63;5089216;28;20096;-59
2023/09/10 00:30:03;;;;;;;23.38;17.08;;;;;;;17.01;100.00;94189.63;5090681;28;20096;-60
2023/09/10 00:32:30;;;;;;;18.23;13.57;;;;;;;17.01;100.00;94195.16;5090422;28;20048;-60
2023/09/10 00:34:57;;;;;;;18.40;13.80;;;;;;;16.97;100.00;94194.53;5090524;28;20048;-59
2023/09/10 00:37:24;;;;;;;17.90;14.10;;;;;;;16.97;100.00;94195.28;5090648;28;20050;-58
2023/09/10 00:39:51;;;;;;;17.48;13.00;;;;;;;16.97;100.00;94186.22;5090388;28;20100;-59
2023/09/10 00:42:17;;;;;;;18.45;13.93;;;;;;;16.87;100.00;94195.69;5091183;28;20048;-59
2023/09/10 00:44:44;;;;;;;19.35;13.27;;;;;;;16.82;100.00;94191.50;5090225;28;20404;-59
2023/09/10 00:47:11;;;;;;;18.13;13.10;;;;;;;16.82;100.00;94197.03;5091021;28;20414;-59
2023/09/10 00:49:38;;;;;;;19.02;13.55;;;;;;;16.80;100.00;94193.88;5090154;28;20028;-59
2023/09/10 00:52:07;;;;;;;19.60;14.35;;;;;;;16.78;100.00;94194.34;5089373;28;20105;-59
2023/09/10 00:54:34;;;;;;;19.50;13.80;;;;;;;16.77;100.00;94200.34;5090314;28;20036;-59
2023/09/10 00:57:01;;;;;;;18.02;13.75;;;;;;;16.76;100.00;94184.91;5090418;28;20386;-59
2023/09/10 00:59:30;;;;;;;19.93;13.43;;;;;;;16.74;100.00;94188.16;5077140;28;20032;-58
2023/09/10 01:02:02;;;;;;;21.58;13.30;;;;;;;16.73;100.00;94192.13;5089162;28;20073;-59
2023/09/10 01:04:28;;;;;;;18.40;13.07;;;;;;;16.72;100.00;94182.28;5089893;28;20044;-58
2023/09/10 01:06:56;;;;;;;17.80;13.65;;;;;;;16.71;100.00;94183.50;5089923;28;20085;-59
2023/09/10 01:09:22;;;;;;;19.65;13.80;;;;;;;16.67;100.00;94182.09;5089119;28;20044;-59
2023/09/10 01:12:20;;;;;;;18.40;13.47;;;;;;;16.69;100.00;94183.19;5087922;28;20554;-59
2023/09/10 01:15:07;;;;;;;18.63;13.65;;;;;;;16.66;100.00;94184.09;5089885;28;20032;-61
2023/09/10 01:17:49;;;;;;;17.60;13.00;;;;;;;16.65;100.00;94190.06;5089598;28;20054;-59
2023/09/10 01:20:40;;;;;;;16.60;12.63;;;;;;;16.53;100.00;94188.88;5090105;28;20036;-59
2023/09/10 01:23:30;;;;;;;17.27;12.35;;;;;;;16.24;100.00;94180.75;5089051;28;20673;-60
2023/09/10 01:25:57;;;;;;;19.47;13.27;;;;;;;16.19;100.00;94187.63;5089241;28;20408;-60
2023/09/10 01:28:24;;;;;;;16.65;12.20;;;;;;;16.19;100.00;94187.63;5089157;28;20048;-59
2023/09/10 01:30:51;;;;;;;16.50;12.40;;;;;;;16.20;100.00;94186.41;5090010;28;20481;-57
2023/09/10 01:33:26;;;;;;;16.63;12.65;;;;;;;16.22;100.00;94183.19;5089348;28;20069;-57
2023/09/10 01:36:14;;;;;;;16.63;12.95;;;;;;;16.23;100.00;94181.97;5089053;28;20868;-57
2023/09/10 01:38:47;;;;;;;17.73;13.27;;;;;;;16.24;100.00;94177.97;5078463;28;20085;-57
2023/09/10 01:41:17;;;;;;;17.98;12.48;;;;;;;16.23;100.00;94187.50;5089613;28;20046;-57
2023/09/10 01:43:44;;;;;;;17.23;12.65;;;;;;;16.16;100.00;94175.44;5089362;28;20047;-57
2023/09/10 01:46:12;;;;;;;16.85;12.50;;;;;;;16.13;100.00;94181.09;5089297;28;20093;-58
2023/09/10 01:48:40;;;;;;;17.55;12.80;;;;;;;16.07;100.00;94180.13;5088901;28;20050;-58
2023/09/10 01:51:07;;;;;;;16.37;12.43;;;;;;;16.06;100.00;94175.81;5089404;28;20485;-57
2023/09/10 01:53:34;;;;;;;16.25;11.93;;;;;;;16.02;100.00;94181.44;5089133;28;20040;-57
2023/09/10 01:56:01;;;;;;;16.67;12.85;;;;;;;15.93;100.00;94173.03;5089328;28;20050;-57
2023/09/10 01:58:27;;;;;;;17.65;12.57;;;;;;;15.86;100.00;94184.34;5089048;28;20052;-56
2023/09/10 02:00:54;;;;;;;18.50;13.52;;;;;;;15.87;100.00;94183.88;5089311;28;20040;-57
2023/09/10 02:03:21;;;;;;;16.70;12.87;;;;;;;15.88;100.00;94179.91;5089365;28;20040;-57
2023/09/10 02:05:48;;;;;;;16.50;12.63;;;;;;;15.90;100.00;94185.00;5082969;28;20479;-57
2023/09/10 02:08:14;;;;;;;18.55;13.57;;;;;;;15.93;100.00;94190.41;5081836;28;20386;-57
2023/09/10 02:10:42;;;;;;;18.52;13.45;;;;;;;15.84;100.00;94186.78;5088588;28;20044;-57
2023/09/10 02:13:09;;;;;;;19.13;13.30;;;;;;;15.83;100.00;94183.22;5091304;28;20104;-57
2023/09/10 02:15:36;;;;;;;18.30;13.63;;;;;;;15.83;100.00;94183.22;5095414;28;20044;-57
2023/09/10 02:18:03;;;;;;;21.00;14.10;;;;;;;15.84;100.00;94184.00;5096260;28;20050;-58
2023/09/10 02:20:36;;;;;;;19.70;13.10;;;;;;;15.81;100.00;94177.34;5095433;27;20043;-58
2023/09/10 02:23:04;;;;;;;21.58;13.88;;;;;;;15.80;100.00;94180.59;5095919;28;20044;-58
2023/09/10 02:25:32;;;;;;;18.92;13.70;;;;;;;15.75;100.00;94190.19;5095577;28;20047;-58
2023/09/10 02:28:01;;;;;;;19.17;13.27;;;;;;;15.72;100.00;94191.06;5095499;28;20044;-58
2023/09/10 02:30:28;;;;;;;18.92;14.00;;;;;;;15.67;100.00;94186.06;5095671;28;20036;-57
2023/09/10 02:32:55;;;;;;;18.85;13.25;;;;;;;15.65;100.00;94192.03;5095929;28;20050;-58
2023/09/10 02:35:23;;;;;;;21.15;13.55;;;;;;;15.65;100.00;94194.81;5096063;27;20036;-58
2023/09/10 02:37:49;;;;;;;18.23;13.85;;;;;;;15.62;100.00;94192.94;5094715;27;20453;-58
2023/09/10 02:40:16;;;;;;;17.97;12.97;;;;;;;15.63;100.00;94188.16;5095924;28;20055;-58
2023/09/10 02:42:43;;;;;;;17.67;13.13;;;;;;;15.58;100.00;94186.75;5095153;27;20062;-58
2023/09/10 02:45:11;;;;;;;17.02;12.80;;;;;;;15.54;100.00;94186.84;5095844;27;20043;-58
2023/09/10 02:47:38;;;;;;;18.58;13.52;;;;;;;15.56;100.00;94189.94;5094755;27;20051;-58
2023/09/10 02:50:05;;;;;;;19.40;13.95;;;;;;;15.46;100.00;94191.03;5095860;27;20048;-58
2023/09/10 02:52:32;;;;;;;21.33;15.20;;;;;;;15.43;100.00;94191.13;5094871;28;20042;-57
2023/09/10 02:54:59;;;;;;;18.75;14.43;;;;;;;15.42;100.00;94193.13;5095511;28;20042;-58
2023/09/10 02:57:26;;;;;;;20.35;14.32;;;;;;;15.31;100.00;94190.69;5094919;28;20048;-58
2023/09/10 02:59:52;;;;;;;19.27;14.25;;;;;;;15.22;100.00;94192.53;5095626;28;20508;-58
2023/09/10 03:02:19;;;;;;;18.83;13.60;;;;;;;15.25;100.00;94202.72;5095855;28;20042;-58
2023/09/10 03:04:46;;;;;;;18.83;13.97;;;;;;;15.23;100.00;94202.38;5093897;28;20499;-57
2023/09/10 03:07:13;;;;;;;18.73;13.70;;;;;;;15.22;100.00;94198.06;5095226;28;20108;-57
2023/09/10 03:09:39;;;;;;;17.40;13.23;;;;;;;15.20;100.00;94206.03;5094764;28;20497;-57
2023/09/10 03:12:26;;;;;;;19.10;13.05;;;;;;;15.21;100.00;94205.56;5093906;28;20066;-58
2023/09/10 03:14:54;;;;;;;18.08;13.63;;;;;;;15.22;100.00;94200.84;5092849;27;20508;-57
2023/09/10 03:17:21;;;;;;;20.33;13.53;;;;;;;15.17;100.00;94197.41;5076793;28;20040;-58
2023/09/10 03:19:48;;;;;;;18.88;13.70;;;;;;;15.13;100.00;94196.72;5088770;27;20583;-57
2023/09/10 03:22:15;;;;;;;20.38;14.27;;;;;;;15.14;100.00;94198.25;5095471;27;20074;-57
2023/09/10 03:24:42;;;;;;;18.48;13.20;;;;;;;15.09;100.00;94193.28;5092936;28;20086;-58
2023/09/10 03:27:08;;;;;;;18.88;13.48;;;;;;;15.10;100.00;94200.34;5086671;28;20509;-57
2023/09/10 03:29:36;;;;;;;18.03;13.40;;;;;;;15.11;100.00;94201.13;5091252;28;20040;-57
2023/09/10 03:32:06;;;;;;;16.92;12.77;;;;;;;15.06;100.00;94198.91;5092306;28;20036;-58
2023/09/10 03:34:34;;;;;;;17.00;12.80;;;;;;;14.94;100.00;94200.41;5090688;28;20421;-57
2023/09/10 03:37:03;;;;;;;17.77;12.48;;;;;;;14.92;100.00;94202.84;5089644;28;20046;-57
2023/09/10 03:39:29;;;;;;;19.77;13.20;;;;;;;14.91;100.00;94198.50;5089238;28;20047;-57
2023/09/10 03:41:56;;;;;;;18.10;13.00;;;;;;;14.93;100.00;94202.41;5092369;28;20073;-58
2023/09/10 03:44:23;;;;;;;21.63;14.40;;;;;;;14.89;100.00;94207.25;5091380;28;20040;-55
2023/09/10 03:46:51;;;;;;;18.10;13.32;;;;;;;14.89;100.00;94210.03;5092195;28;20055;-58
2023/09/10 03:49:18;;;;;;;18.98;14.02;;;;;;;14.86;100.00;94199.84;5091853;28;20048;-58
2023/09/10 03:51:47;;;;;;;19.10;13.45;;;;;;;14.82;100.00;94199.16;5091308;28;20044;-57
2023/09/10 03:54:14;;;;;;;18.73;13.67;;;;;;;14.83;100.00;94202.69;5091814;28;20043;-58
2023/09/10 03:56:41;;;;;;;17.83;13.82;;;;;;;14.83;100.00;94200.72;5091101;28;20070;-57
2023/09/10 03:59:08;;;;;;;17.90;12.48;;;;;;;14.75;100.00;94199.38;5091269;28;20051;-58
2023/09/10 04:01:35;;;;;;;15.77;12.10;;;;;;;14.72;100.00;94194.69;5091155;28;20044;-57
2023/09/10 04:04:06;;;;;;;17.27;12.30;;;;;;;14.65;100.00;94201.19;5091568;28;20044;-58
2023/09/10 04:06:32;;;;;;;15.87;12.30;;;;;;;14.58;100.00;94193.09;5090984;28;20054;-57
2023/09/10 04:08:59;;;;;;;16.13;12.45;;;;;;;14.48;100.00;94194.09;5091178;28;20052;-57
2023/09/10 04:11:26;;;;;;;170.00;112.07;;;;;;;14.50;100.00;94199.97;5090931;28;20407;-57
2023/09/10 04:13:52;;;;;;;36.25;24.02;;;;;;;14.50;100.00;94192.47;5091190;28;20407;-58
2023/09/10 04:16:19;;;;;;;32.08;22.15;;;;;;;14.52;100.00;94192.03;5091256;28;20048;-58
2023/09/10 04:18:46;;;;;;;18.53;13.13;;;;;;;14.53;100.00;94197.13;5090617;28;20407;-58
2023/09/10 04:21:13;;;;;;;17.88;13.50;;;;;;;14.51;100.00;94204.31;5091201;28;20534;-58
2023/09/10 04:23:40;;;;;;;16.98;12.90;;;;;;;14.54;100.00;94197.91;5090321;28;20381;-58
2023/09/10 04:26:07;;;;;;;17.90;12.80;;;;;;;14.51;100.00;94204.31;5091356;28;20047;-58
2023/09/10 04:28:34;;;;;;;18.73;13.77;;;;;;;14.53;100.00;94199.13;5089970;28;20040;-59
2023/09/10 04:31:01;;;;;;;18.27;12.83;;;;;;;14.51;100.00;94199.53;5090933;28;20458;-59
2023/09/10 04:33:27;;;;;;;19.77;14.18;;;;;;;14.47;100.00;94200.84;5090605;28;20693;-59
2023/09/10 04:35:57;;;;;;;18.67;13.95;;;;;;;14.47;100.00;94203.63;5090620;28;20537;-59
2023/09/10 04:38:24;;;;;;;17.48;13.10;;;;;;;14.48;100.00;94205.94;5089824;28;20036;-59
2023/09/10 04:40:51;;;;;;;19.73;14.40;;;;;;;14.28;100.00;94206.03;5091008;28;20246;-59
2023/09/10 04:43:18;;;;;;;19.73;13.60;;;;;;;14.24;100.00;94215.63;5090548;28;20044;-59
2023/09/10 04:45:46;;;;;;;18.95;13.73;;;;;;;14.19;100.00;94214.16;5090287;28;20396;-59
2023/09/10 04:48:13;;;;;;;22.60;14.40;;;;;;;14.30;100.00;94211.13;5090717;28;20079;-59
2023/09/10 04:50:40;;;;;;;19.42;13.48;;;;;;;14.36;100.00;94209.38;5090057;28;20038;-59
2023/09/10 04:53:07;;;;;;;20.98;14.00;;;;;;;14.40;100.00;94212.84;5090690;28;20075;-59
2023/09/10 04:55:34;;;;;;;22.13;14.43;;;;;;;14.44;100.00;94215.50;5089867;28;20040;-59
2023/09/10 04:58:01;;;;;;;20.05;13.55;;;;;;;14.44;100.00;94210.75;5090563;28;20481;-59
2023/09/10 05:00:28;;;;;;;24.23;14.93;;;;;;;14.45;100.00;94220.63;5089925;28;20039;-59
2023/09/10 05:02:54;;;;;;;23.65;14.55;;;;;;;14.43;100.00;94222.22;5090493;28;20048;-59
2023/09/10 05:05:21;;;;;;;43.38;15.70;;;;;;;14.33;100.00;94229.59;5089815;28;20116;-59
2023/09/10 05:07:49;;;;;;;35.20;15.47;;;;;;;14.27;100.00;94229.34;5089741;28;20919;-59
2023/09/10 05:10:16;;;;;;;25.50;15.00;;;;;;;14.29;100.00;94232.44;5090117;28;20050;-59
2023/09/10 05:12:43;;;;;;;21.88;14.52;;;;;;;14.36;100.00;94232.25;5089933;28;20040;-59
2023/09/10 05:15:10;;;;;;;20.38;14.40;;;;;;;14.46;100.00;94232.44;5089927;28;20412;-59
2023/09/10 05:17:38;;;;;;;23.63;14.93;;;;;;;14.49;100.00;94235.09;5089714;28;20047;-59
2023/09/10 05:20:07;;;;;;;19.83;14.23;;;;;;;14.50;100.00;94233.88;5090410;28;20535;-59
2023/09/10 05:22:34;;;;;;;27.17;14.68;;;;;;;14.49;100.00;94229.59;5089752;28;20050;-59
2023/09/10 05:25:02;;;;;;;48.30;15.50;;;;;;;14.36;100.00;94231.47;5089911;28;20390;-59
2023/09/10 05:27:29;;;;;;;25.27;14.88;;;;;;;14.36;100.00;94231.47;5089833;28;20374;-59
2023/09/10 05:29:55;;;;;;;41.05;15.43;;;;;;;14.30;100.00;94233.22;5089970;28;20419;-59
2023/09/10 05:32:22;;;;;;;30.67;14.53;;;;;;;14.33;100.00;94230.38;5090123;28;20036;-59
2023/09/10 05:34:49;;;;;;;32.10;15.07;;;;;;;14.34;100.00;94234.66;5088808;28;21457;-59
2023/09/10 05:37:16;;;;;;;23.85;14.60;;;;;;;14.28;100.00;94230.09;5090075;28;20044;-59
2023/09/10 05:39:43;;;;;;;21.40;14.63;;;;;;;14.24;100.00;94234.94;5088956;28;20048;-59
2023/09/10 05:42:09;;;;;;;23.75;14.88;;;;;;;14.33;100.00;94229.59;5089809;28;20052;-59
2023/09/10 05:44:36;;;;;;;25.83;15.63;;;;;;;14.43;100.00;94231.31;5088938;28;20044;-59
2023/09/10 05:47:03;;;;;;;22.63;14.75;;;;;;;14.54;100.00;94222.75;5089870;28;20047;-59
2023/09/10 05:49:33;;;;;;;23.25;14.73;;;;;;;14.57;100.00;94228.22;5088434;28;20100;-58
2023/09/10 05:51:59;;;;;;;19.65;14.40;;;;;;;14.77;100.00;94232.84;5089518;28;20050;-59
2023/09/10 05:54:26;;;;;;;20.42;13.70;;;;;;;15.03;100.00;94228.22;5089047;28;20040;-59
2023/09/10 05:56:53;;;;;;;19.20;13.83;;;;;;;15.36;100.00;94228.06;5089683;28;20400;-59
2023/09/10 05:59:20;;;;;;;19.73;13.52;;;;;;;15.68;100.00;94227.13;5089333;28;20052;-59
2023/09/10 06:01:46;;;;;;;18.58;13.85;;;;;;;15.89;100.00;94222.19;5089295;28;20561;-59
2023/09/10 06:04:13;;;;;;;21.73;14.57;;;;;;;16.17;100.00;94221.28;5089428;28;20048;-59
2023/09/10 06:06:40;;;;;;;18.42;13.95;;;;;;;16.42;100.00;94218.94;5088436;28;20044;-59
2023/09/10 06:09:07;;;;;;;18.60;14.07;;;;;;;16.68;100.00;94225.19;5089372;28;20048;-59
2023/09/10 06:11:34;;;;;;;20.42;13.48;;;;;;;16.84;100.00;94222.31;5089190;28;20391;-59
2023/09/10 06:14:00;;;;;;;19.27;13.60;;;;;;;16.88;100.00;94225.72;5089155;28;20469;-59
2023/09/10 06:16:27;;;;;;;19.23;14.20;;;;;;;16.73;100.00;94230.19;5088952;28;20065;-59
2023/09/10 06:18:54;;;;;;;19.90;14.13;;;;;;;17.09;100.00;94226.97;5076028;28;20418;-59
2023/09/10 06:21:21;;;;;;;22.47;13.60;;;;;;;17.43;100.00;94224.59;5087848;28;20404;-59
2023/09/10 06:23:48;;;;;;;22.05;12.95;;;;;;;17.84;100.00;94228.22;5088696;28;20046;-59
2023/09/10 06:26:14;;;;;;;17.50;13.27;;;;;;;18.05;100.00;94224.63;5088859;28;20040;-59
2023/09/10 06:28:41;;;;;;;16.75;12.70;;;;;;;18.36;100.00;94219.03;5088375;28;20439;-59
2023/09/10 06:31:09;;;;;;;16.00;12.50;;;;;;;18.68;100.00;94224.50;5089089;28;20044;-59
2023/09/10 06:33:35;;;;;;;18.73;12.77;;;;;;;18.57;100.00;94219.38;5088755;28;20044;-58
2023/09/10 06:36:02;;;;;;;21.50;12.70;;;;;;;18.58;100.00;94225.72;5088743;28;20067;-57
2023/09/10 06:38:29;;;;;;;17.80;13.43;;;;;;;18.19;100.00;94223.31;5088636;28;20403;-58
2023/09/10 06:40:56;;;;;;;18.17;13.57;;;;;;;18.04;100.00;94234.19;5088891;28;20044;-58
2023/09/10 06:43:23;;;;;;;17.77;13.20;;;;;;;18.20;100.00;94230.41;5088792;28;20040;-58
2023/09/10 06:45:51;;;;;;;16.10;12.50;;;;;;;18.56;100.00;94231.72;5088069;28;21546;-58
2023/09/10 06:48:18;;;;;;;18.83;13.23;;;;;;;18.66;100.00;94227.75;5089015;28;20040;-58
2023/09/10 06:50:45;;;;;;;16.60;12.38;;;;;;;18.87;100.00;94226.09;5088214;28;20484;-58
2023/09/10 06:53:12;;;;;;;17.10;12.45;;;;;;;18.99;100.00;94229.97;5089174;28;20052;-58
2023/09/10 06:55:39;;;;;;;17.10;13.05;;;;;;;19.60;100.00;94226.50;5088060;28;20534;-58
2023/09/10 06:58:06;;;;;;;17.27;13.13;;;;;;;20.76;100.00;94226.25;5087717;28;20048;-59
2023/09/10 07:00:34;;;;;;;15.93;12.60;;;;;;;23.67;100.00;94221.47;5089889;28;20404;-58
2023/09/10 07:03:02;;;;;;;14.60;11.95;;;;;;;25.96;100.00;94222.59;5091456;28;20044;-59
2023/09/10 07:05:29;;;;;;;14.30;12.10;;;;;;;27.76;89.67;94226.34;5090308;28;20392;-59
2023/09/10 07:07:57;;;;;;;14.50;11.43;;;;;;;28.20;84.00;94222.47;5092669;28;20048;-59
2023/09/10 07:10:24;;;;;;;12.97;11.30;;;;;;;28.15;83.99;94230.97;5091865;28;20036;-58
2023/09/10 07:12:50;;;;;;;13.60;11.43;;;;;;;29.09;78.88;94228.59;5092773;28;20040;-59
2023/09/10 07:15:17;;;;;;;13.48;11.73;;;;;;;29.94;72.01;94226.81;5092481;28;20043;-59
2023/09/10 07:17:44;;;;;;;12.63;11.20;;;;;;;30.66;70.54;94218.50;5090710;28;20056;-59
2023/09/10 07:20:11;;;;;;;13.98;11.50;;;;;;;32.00;63.01;94228.56;5092085;28;20044;-60
2023/09/10 07:22:38;;;;;;;12.00;10.70;;;;;;;31.50;62.38;94227.53;5092176;28;20043;-59
2023/09/10 07:25:05;;;;;;;14.48;11.10;;;;;;;30.72;67.51;94222.00;5092227;28;20396;-59
2023/09/10 07:27:32;;;;;;;13.10;10.82;;;;;;;31.83;62.27;94228.13;5091572;28;20048;-59
2023/09/10 07:29:58;;;;;;;13.02;11.63;;;;;;;32.85;58.44;94226.53;5091492;28;20044;-59
2023/09/10 07:32:25;;;;;;;12.13;10.80;;;;;;;33.64;57.48;94227.28;5091404;28;20047;-59
2023/09/10 07:34:52;;;;;;;11.90;10.70;;;;;;;33.45;54.99;94219.00;5091837;28;20187;-59
2023/09/10 07:37:19;;;;;;;12.07;10.80;;;;;;;33.08;54.93;94221.00;5090894;28;20040;-59
2023/09/10 07:39:45;;;;;;;12.35;10.95;;;;;;;33.27;56.28;94223.66;5091482;28;20051;-59
2023/09/10 07:42:12;;;;;;;11.65;10.38;;;;;;;34.31;53.14;94233.06;5091898;28;20067;-59
2023/09/10 07:44:40;;;;;;;12.55;10.27;;;;;;;35.74;49.04;94222.78;5091187;28;20086;-59
2023/09/10 07:47:10;;;;;;;11.40;10.20;;;;;;;35.71;47.74;94220.31;5091915;28;20508;-59
2023/09/10 07:49:37;;;;;;;12.80;10.23;;;;;;;35.45;48.07;94218.66;5090864;28;20526;-58
2023/09/10 07:52:04;;;;;;;10.65;9.65;;;;;;;34.96;49.44;94238.47;5091645;28;20048;-58
2023/09/10 07:54:35;;;;;;;10.77;9.70;;;;;;;36.44;46.89;94222.44;5090966;28;20502;-58
2023/09/10 07:57:03;;;;;;;11.50;10.30;;;;;;;37.46;43.67;94233.31;5091645;28;20055;-59
2023/09/10 07:59:30;;;;;;;11.00;9.90;;;;;;;37.02;43.36;94233.88;5091121;28;20040;-59
2023/09/10 08:01:56;;;;;;;10.95;9.80;;;;;;;37.73;42.28;94233.41;5091400;28;20047;-59
2023/09/10 08:04:23;;;;;;;10.27;9.18;;;;;;;38.04;41.91;94233.81;5091224;28;20052;-58
2023/09/10 08:06:50;;;;;;;10.63;9.63;;;;;;;38.00;40.96;94227.00;5091135;28;20040;-59
2023/09/10 08:09:17;;;;;;;10.20;9.20;;;;;;;38.66;38.98;94228.03;5091597;28;20048;-59
2023/09/10 08:11:44;;;;;;;10.83;9.33;;;;;;;38.61;39.23;94226.19;5090118;28;20120;-59
2023/09/10 08:14:10;;;;;;;12.73;10.65;;;;;;;37.74;40.36;94220.63;5091577;28;20044;-59
2023/09/10 08:16:37;;;;;;;12.35;9.45;;;;;;;38.77;39.11;94229.59;5090387;28;20036;-59
2023/09/10 08:19:04;;;;;;;10.65;9.52;;;;;;;39.12;38.36;94226.56;5091006;28;20507;-59
2023/09/10 08:21:31;;;;;;;9.90;8.90;;;;;;;39.80;37.20;94231.69;5090196;28;20059;-58
2023/09/10 08:23:57;;;;;;;9.77;8.87;;;;;;;40.51;36.13;94216.81;5090983;28;20054;-58
2023/09/10 08:26:24;;;;;;;10.23;9.23;;;;;;;41.44;34.45;94235.53;5090321;28;20400;-58
2023/09/10 08:28:51;;;;;;;10.70;9.63;;;;;;;40.34;35.47;94231.38;5091050;28;20047;-58
2023/09/10 08:31:18;;;;;;;11.15;10.07;;;;;;;40.61;35.09;94227.53;5090772;28;20047;-59
2023/09/10 08:33:45;;;;;;;11.35;10.15;;;;;;;39.26;36.87;94224.81;5088984;28;20444;-58
2023/09/10 08:36:12;;;;;;;9.67;8.67;;;;;;;40.31;36.37;94230.50;5090644;28;20044;-59
2023/09/10 08:38:39;;;;;;;11.98;10.40;;;;;;;36.27;43.47;94223.88;5088807;28;20069;-59
2023/09/10 08:41:15;;;;;;;9.88;8.90;;;;;;;38.76;39.37;94230.97;5090397;28;20052;-59
2023/09/10 08:43:53;;;;;;;9.40;8.50;;;;;;;40.56;36.40;94220.72;5090507;28;20040;-58
2023/09/10 08:46:22;;;;;;;9.95;8.82;;;;;;;42.15;33.12;94223.66;5090258;28;20062;-59
2023/09/10 08:48:51;;;;;;;11.93;10.20;;;;;;;39.66;36.58;94228.50;5089872;28;20781;-59
2023/09/10 08:51:19;;;;;;;10.90;9.80;;;;;;;40.58;35.33;94212.25;5076915;28;20048;-59
2023/09/10 08:53:47;;;;;;;9.60;8.70;;;;;;;42.26;32.98;94217.16;5088673;28;20036;-59
2023/09/10 08:56:14;;;;;;;13.02;10.07;;;;;;;38.41;38.10;94224.56;5090408;28;20104;-59
2023/09/10 08:58:47;;;;;;;11.10;10.00;;;;;;;39.07;38.22;94227.63;5089525;28;20052;-59
2023/09/10 09:01:15;;;;;;;10.43;9.37;;;;;;;41.79;34.32;94214.09;5090616;28;20078;-59
2023/09/10 09:03:41;;;;;;;10.68;9.32;;;;;;;40.77;35.16;94210.69;5089357;28;20411;-59
2023/09/10 09:06:08;;;;;;;9.18;8.27;;;;;;;43.28;31.45;94214.22;5089815;28;20050;-60
2023/09/10 09:08:36;;;;;;;10.10;9.18;;;;;;;43.24;31.46;94203.13;5089576;28;20048;-60
2023/09/10 09:11:06;;;;;;;10.07;8.90;;;;;;;42.88;31.83;94207.41;5090375;28;20062;-59
2023/09/10 09:13:35;;;;;;;8.90;8.00;;;;;;;44.25;30.32;94200.38;5089780;28;20062;-59
2023/09/10 09:16:03;;;;;;;9.52;7.90;;;;;;;43.99;30.36;94199.59;5089949;28;20055;-60
2023/09/10 09:18:33;;;;;;;11.13;10.13;;;;;;;37.72;36.41;94188.94;5089646;28;20048;-59
2023/09/10 09:21:23;;;;;;;11.40;10.25;;;;;;;33.96;48.70;94203.31;5090368;28;20052;-60
2023/09/10 09:23:59;;;;;;;11.15;9.93;;;;;;;34.40;47.98;94203.25;5088825;28;20049;-60
2023/09/10 09:26:27;;;;;;;10.80;9.30;;;;;;;36.27;45.18;94192.44;5089440;28;20044;-59
2023/09/10 09:28:56;;;;;;;9.65;8.18;;;;;;;38.72;39.36;94204.81;5089837;28;20055;-60
2023/09/10 09:31:24;;;;;;;8.70;7.80;;;;;;;39.46;35.79;94199.00;5089622;28;20043;-59
2023/09/10 09:33:52;;;;;;;10.18;7.65;;;;;;;38.70;36.57;94196.81;5088881;28;20828;-59
2023/09/10 09:36:18;;;;;;;10.15;7.50;;;;;;;40.53;33.03;94202.59;5089540;28;20040;-60
2023/09/10 09:38:47;;;;;;;9.17;7.17;;;;;;;39.53;31.35;94193.13;5089626;28;20050;-59
2023/09/10 09:41:15;;;;;;;7.93;6.70;;;;;;;40.44;31.12;94185.34;5089474;28;20050;-60
2023/09/10 09:43:43;;;;;;;10.13;6.90;;;;;;;39.81;30.80;94188.00;5089106;28;20036;-59
2023/09/10 09:46:10;;;;;;;10.07;6.72;;;;;;;42.97;28.07;94188.47;5089700;28;20297;-60
2023/09/10 09:48:38;;;;;;;6.63;5.78;;;;;;;43.07;25.13;94189.84;5089179;28;20489;-60
2023/09/10 09:51:05;;;;;;;7.27;5.90;;;;;;;42.84;25.13;94193.47;5089517;28;20502;-60
2023/09/10 09:53:33;;;;;;;8.07;6.78;;;;;;;39.00;28.44;94186.22;5088913;28;20051;-59
2023/09/10 09:56:04;;;;;;;8.05;6.30;;;;;;;41.07;27.73;94183.28;5089128;28;20040;-60
2023/09/10 09:58:32;;;;;;;7.68;6.90;;;;;;;35.17;35.16;94181.22;5089228;28;20040;-59
2023/09/10 10:00:59;;;;;;;7.88;7.07;;;;;;;36.02;32.43;94178.09;5089281;28;20048;-60
2023/09/10 10:03:29;;;;;;;6.70;5.53;;;;;;;38.43;26.82;94173.88;5089127;28;20041;-59
2023/09/10 10:05:55;;;;;;;8.35;6.00;;;;;;;35.88;30.25;94171.88;5082674;28;20044;-59
2023/09/10 10:08:28;;;;;;;8.00;6.03;;;;;;;38.30;27.29;94165.66;5082660;28;20043;-60
2023/09/10 10:10:56;;;;;;;7.78;6.10;;;;;;;38.01;27.94;94162.59;5087041;28;20595;-60
2023/09/10 10:13:25;;;;;;;7.43;5.50;;;;;;;42.09;24.60;94164.22;5088772;28;20055;-60
2023/09/10 10:15:54;;;;;;;6.90;5.23;;;;;;;42.02;24.05;94152.94;5081130;28;21552;-60
2023/09/10 10:18:23;;;;;;;7.35;5.60;;;;;;;40.68;26.00;94163.31;5078543;28;20141;-60
2023/09/10 10:20:50;;;;;;;8.00;5.75;;;;;;;41.66;25.06;94152.75;5088326;28;21533;-60
2023/09/10 10:23:18;;;;;;;6.60;5.53;;;;;;;40.86;25.35;94153.09;5089030;28;20051;-60
2023/09/10 10:25:52;;;;;;;7.22;5.15;;;;;;;43.42;22.12;94159.44;5088232;28;20819;-59
2023/09/10 10:28:20;;;;;;;6.13;5.10;;;;;;;44.26;20.32;94155.63;5089105;28;20035;-60
2023/09/10 10:31:18;;;;;;;8.27;5.28;;;;;;;40.69;23.02;94148.31;5088740;28;20598;-60
2023/09/10 10:33:50;;;;;;;9.15;5.70;;;;;;;38.24;25.75;94150.84;5080215;28;20047;-60
2023/09/10 10:36:29;;;;;;;5.97;5.38;;;;;;;39.53;25.22;94144.28;5093485;28;20412;-60
2023/09/10 10:38:56;;;;;;;6.25;5.13;;;;;;;41.06;23.57;94129.97;5092331;28;20040;-60
2023/09/10 10:41:28;;;;;;;6.07;5.10;;;;;;;41.17;22.90;94137.94;5093017;28;20063;-60
2023/09/10 10:44:13;;;;;;;6.03;4.90;;;;;;;43.37;20.76;94135.34;5091984;28;21611;-60
2023/09/10 10:46:43;;;;;;;8.10;5.40;;;;;;;43.08;21.87;94133.63;5082123;28;20047;-59
2023/09/10 10:49:11;;;;;;;6.70;5.30;;;;;;;43.42;20.21;94134.16;5092917;28;20078;-59
2023/09/10 10:51:44;;;;;;;5.75;5.10;;;;;;;44.15;20.26;94127.50;5092436;28;20048;-60
2023/09/10 10:54:22;;;;;;;6.70;5.20;;;;;;;43.85;20.33;94124.34;5092682;28;20055;-60
2023/09/10 10:56:49;;;;;;;7.40;4.70;;;;;;;43.84;19.97;94122.88;5091779;28;21411;-59
2023/09/10 10:59:16;;;;;;;6.10;5.50;;;;;;;39.48;23.99;94133.88;5092589;28;20400;-59
2023/09/10 11:02:14;;;;;;;6.68;5.32;;;;;;;40.63;23.07;94115.47;5092311;28;20056;-60
2023/09/10 11:05:01;;;;;;;6.88;5.55;;;;;;;40.93;23.10;94120.50;5087743;28;20042;-59
2023/09/10 11:07:29;;;;;;;11.67;5.50;;;;;;;41.83;22.10;94122.88;5091708;28;20046;-59
2023/09/10 11:10:17;;;;;;;6.72;5.20;;;;;;;40.82;23.14;94118.28;5092446;28;20043;-59
2023/09/10 11:13:03;;;;;;;7.47;5.78;;;;;;;39.57;24.46;94123.00;5091748;28;20044;-59
2023/09/10 11:15:30;;;;;;;7.03;5.22;;;;;;;40.39;23.16;94108.75;5091853;28;20051;-59
2023/09/10 11:18:34;;;;;;;9.32;5.60;;;;;;;40.44;23.21;94110.56;5092457;28;20100;-60
2023/09/10 11:21:03;;;;;;;8.07;5.43;;;;;;;39.35;24.70;94114.94;5075862;28;20043;-59
2023/09/10 11:23:30;;;;;;;9.00;5.70;;;;;;;37.48;26.10;94111.13;5091594;28;20468;-59